createdAt,value
2023-02-13T00:00:58.980Z,2.07
2023-02-13T00:03:27.265Z,2.50
2023-02-13T00:05:55.164Z,2.70
2023-02-13T00:08:23.020Z,2.83
2023-02-13T00:10:51.052Z,2.70
2023-02-13T00:13:20.298Z,2.57
2023-02-13T00:15:56.687Z,2.53
2023-02-13T00:18:24.612Z,2.60
2023-02-13T00:20:59.649Z,2.67
2023-02-13T00:23:27.722Z,2.57
2023-02-13T00:25:55.625Z,2.40
2023-02-13T00:28:25.098Z,2.47
2023-02-13T00:30:53.197Z,2.30
2023-02-13T00:33:21.102Z,2.37
2023-02-13T00:35:48.975Z,2.87
2023-02-13T00:38:16.835Z,3.10
2023-02-13T00:40:44.667Z,2.60
2023-02-13T00:43:12.468Z,2.53
2023-02-13T00:45:41.685Z,2.27
2023-02-13T00:48:09.589Z,2.53
2023-02-13T00:50:37.485Z,2.87
2023-02-13T00:53:05.334Z,2.87
2023-02-13T00:55:33.988Z,2.97
2023-02-13T00:58:01.825Z,2.63
2023-02-13T01:00:29.724Z,2.77
2023-02-13T01:02:58.984Z,3.13
2023-02-13T01:05:29.914Z,2.93
2023-02-13T01:07:57.912Z,2.77
2023-02-13T01:10:26.329Z,3.53
2023-02-13T01:12:54.820Z,2.73
2023-02-13T01:15:22.803Z,2.20
2023-02-13T01:17:50.682Z,2.60
2023-02-13T01:20:20.117Z,2.87
2023-02-13T01:22:47.973Z,2.60
2023-02-13T01:25:15.846Z,2.37
2023-02-13T01:27:43.778Z,2.63
2023-02-13T01:30:14.531Z,2.70
2023-02-13T01:32:43.598Z,2.97
2023-02-13T01:35:21.088Z,3.80
2023-02-13T01:37:50.450Z,3.33
2023-02-13T01:40:18.430Z,2.70
2023-02-13T01:42:46.406Z,2.90
2023-02-13T01:45:25.692Z,2.80
2023-02-13T01:47:57.370Z,2.77
2023-02-13T01:50:30.272Z,2.80
2023-02-13T01:53:05.349Z,2.83
2023-02-13T01:55:35.641Z,2.70
2023-02-13T01:58:08.199Z,3.77
2023-02-13T02:00:37.640Z,3.17
2023-02-13T02:03:14.585Z,2.83
2023-02-13T02:05:44.098Z,2.83
2023-02-13T02:08:15.352Z,3.00
2023-02-13T02:10:43.431Z,2.67
2023-02-13T02:13:13.734Z,3.43
2023-02-13T02:15:43.527Z,3.53
2023-02-13T02:18:16.367Z,2.70
2023-02-13T02:21:06.376Z,3.17
2023-02-13T02:24:24.640Z,3.20
2023-02-13T02:27:15.641Z,2.80
2023-02-13T02:30:08.141Z,3.10
2023-02-13T02:32:53.856Z,2.97
2023-02-13T02:35:30.362Z,2.90
2023-02-13T02:38:15.321Z,2.87
2023-02-13T02:40:55.401Z,3.10
2023-02-13T02:43:36.442Z,3.10
2023-02-13T02:46:12.924Z,3.00
2023-02-13T02:49:05.494Z,3.00
2023-02-13T02:51:42.361Z,2.90
2023-02-13T02:54:29.005Z,3.47
2023-02-13T02:57:01.295Z,3.33
2023-02-13T02:59:48.407Z,2.93
2023-02-13T03:02:34.636Z,2.60
2023-02-13T03:05:22.512Z,3.00
2023-02-13T03:07:50.651Z,3.27
2023-02-13T03:10:50.590Z,3.87
2023-02-13T03:13:32.628Z,3.07
2023-02-13T03:16:19.492Z,3.73
2023-02-13T03:19:08.886Z,3.17
2023-02-13T03:22:17.027Z,3.67
2023-02-13T03:24:51.516Z,3.17
2023-02-13T03:27:44.586Z,3.40
2023-02-13T03:30:22.734Z,3.60
2023-02-13T03:33:02.798Z,3.47
2023-02-13T03:35:55.838Z,3.20
2023-02-13T03:38:30.853Z,3.33
2023-02-13T03:41:20.293Z,3.20
2023-02-13T03:43:56.196Z,2.97
2023-02-13T03:46:27.094Z,3.07
2023-02-13T03:49:13.170Z,4.10
2023-02-13T03:51:45.467Z,2.90
2023-02-13T03:54:20.667Z,2.53
2023-02-13T03:57:09.258Z,2.40
2023-02-13T03:59:38.663Z,3.40
2023-02-13T04:02:12.435Z,3.30
2023-02-13T04:04:48.258Z,2.80
2023-02-13T04:07:29.407Z,3.83
2023-02-13T04:10:01.141Z,3.47
2023-02-13T04:12:39.254Z,3.37
2023-02-13T04:15:12.237Z,3.27
2023-02-13T04:17:44.428Z,3.30
2023-02-13T04:20:13.128Z,3.67
2023-02-13T04:22:44.079Z,2.90
2023-02-13T04:25:15.146Z,3.77
2023-02-13T04:27:43.386Z,2.90
2023-02-13T04:30:12.411Z,3.00
2023-02-13T04:32:40.303Z,4.97
2023-02-13T04:35:09.340Z,3.37
2023-02-13T04:37:37.185Z,3.00
2023-02-13T04:40:05.691Z,3.07
2023-02-13T04:42:34.910Z,3.33
2023-02-13T04:45:02.864Z,4.00
2023-02-13T04:47:30.793Z,3.07
2023-02-13T04:49:58.648Z,3.50
2023-02-13T04:52:26.499Z,3.03
2023-02-13T04:54:54.466Z,3.00
2023-02-13T04:57:22.340Z,2.73
2023-02-13T04:59:51.554Z,3.60
2023-02-13T05:02:19.427Z,3.40
2023-02-13T05:04:47.324Z,3.40
2023-02-13T05:07:15.257Z,2.97
2023-02-13T05:09:43.234Z,3.47
2023-02-13T05:12:11.085Z,3.30
2023-02-13T05:14:39.090Z,3.10
2023-02-13T05:17:08.382Z,3.10
2023-02-13T05:19:36.242Z,3.23
2023-02-13T05:22:21.438Z,3.30
2023-02-13T05:24:49.322Z,3.47
2023-02-13T05:27:17.231Z,3.33
2023-02-13T05:29:45.106Z,3.60
2023-02-13T05:32:14.349Z,3.60
2023-02-13T05:34:42.377Z,3.80
2023-02-13T05:37:10.222Z,3.37
2023-02-13T05:39:38.101Z,3.43
2023-02-13T05:42:06.390Z,3.77
2023-02-13T05:44:34.265Z,3.50
2023-02-13T05:47:02.155Z,3.17
2023-02-13T05:49:31.372Z,3.50
2023-02-13T05:51:59.290Z,3.80
2023-02-13T05:54:27.233Z,3.30
2023-02-13T05:56:55.104Z,3.70
2023-02-13T05:59:24.063Z,3.80
2023-02-13T06:01:52.596Z,4.50
2023-02-13T06:04:20.463Z,3.97
2023-02-13T06:06:49.684Z,3.33
2023-02-13T06:09:17.516Z,3.20
2023-02-13T06:11:45.399Z,3.63
2023-02-13T06:14:13.950Z,3.30
2023-02-13T06:16:41.997Z,3.97
2023-02-13T06:19:10.044Z,3.30
2023-02-13T06:21:38.975Z,3.30
2023-02-13T06:24:09.290Z,4.03
2023-02-13T06:26:37.379Z,4.17
2023-02-13T06:29:06.515Z,5.17
2023-02-13T06:31:34.811Z,3.50
2023-02-13T06:34:02.732Z,3.80
2023-02-13T06:36:30.687Z,4.57
2023-02-13T06:38:58.553Z,3.83
2023-02-13T06:41:27.781Z,3.93
2023-02-13T06:43:55.635Z,4.30
2023-02-13T06:46:23.564Z,3.90
2023-02-13T06:48:51.444Z,3.90
2023-02-13T06:51:19.315Z,3.50
2023-02-13T06:53:47.250Z,3.93
2023-02-13T06:56:15.103Z,4.00
2023-02-13T06:58:44.408Z,4.17
2023-02-13T07:01:12.478Z,3.40
2023-02-13T07:03:40.384Z,3.40
2023-02-13T07:06:08.408Z,3.80
2023-02-13T07:08:36.287Z,4.07
2023-02-13T07:11:04.164Z,3.87
2023-02-13T07:13:32.044Z,3.93
2023-02-13T07:16:03.063Z,3.80
2023-02-13T07:18:30.927Z,3.83
2023-02-13T07:20:59.838Z,3.80
2023-02-13T07:23:27.833Z,4.30
2023-02-13T07:25:55.730Z,3.90
2023-02-13T07:28:23.665Z,4.63
2023-02-13T07:30:51.629Z,3.47
2023-02-13T07:33:25.551Z,3.57
2023-02-13T07:35:53.809Z,4.20
2023-02-13T07:38:21.826Z,3.87
2023-02-13T07:40:49.737Z,4.03
2023-02-13T07:43:17.661Z,4.67
2023-02-13T07:45:46.946Z,3.73
2023-02-13T07:48:14.843Z,3.83
2023-02-13T07:50:44.032Z,3.93
2023-02-13T07:53:11.952Z,4.37
2023-02-13T07:55:39.773Z,3.80
2023-02-13T07:58:07.680Z,4.90
2023-02-13T08:00:35.628Z,4.30
2023-02-13T08:03:03.945Z,4.43
2023-02-13T08:05:33.731Z,3.80
2023-02-13T08:08:03.021Z,4.43
2023-02-13T08:10:48.621Z,4.20
2023-02-13T08:13:17.532Z,3.63
2023-02-13T08:15:45.461Z,4.03
2023-02-13T08:18:13.489Z,4.00
2023-02-13T08:20:41.348Z,3.67
2023-02-13T08:23:12.266Z,3.80
2023-02-13T08:25:40.539Z,4.30
2023-02-13T08:28:08.666Z,3.30
2023-02-13T08:30:36.765Z,4.50
2023-02-13T08:33:04.758Z,4.10
2023-02-13T08:35:32.832Z,3.70
2023-02-13T08:38:03.294Z,4.17
2023-02-13T08:40:32.772Z,3.93
2023-02-13T08:43:02.378Z,4.53
2023-02-13T08:45:30.914Z,4.20
2023-02-13T08:47:59.617Z,3.80
2023-02-13T08:50:28.643Z,4.30
2023-02-13T08:52:56.547Z,4.13
2023-02-13T08:55:24.409Z,4.03
2023-02-13T08:57:53.643Z,4.07
2023-02-13T09:00:22.500Z,3.93
2023-02-13T09:02:50.390Z,3.90
2023-02-13T09:05:18.404Z,4.17
2023-02-13T09:07:46.259Z,3.90
2023-02-13T09:10:14.152Z,3.27
2023-02-13T09:12:42.115Z,4.13
2023-02-13T09:15:11.815Z,3.90
2023-02-13T09:17:39.985Z,4.47
2023-02-13T09:20:08.878Z,3.87
2023-02-13T09:22:36.778Z,3.57
2023-02-13T09:25:04.924Z,3.77
2023-02-13T09:27:33.609Z,3.30
2023-02-13T09:30:01.682Z,3.57
2023-02-13T09:32:31.009Z,4.40
2023-02-13T09:34:58.889Z,3.43
2023-02-13T09:37:27.067Z,3.40
2023-02-13T09:39:54.972Z,3.80
2023-02-13T09:42:27.183Z,3.43
2023-02-13T09:44:58.260Z,3.73
2023-02-13T09:47:32.689Z,4.27
2023-02-13T09:50:04.385Z,4.37
2023-02-13T09:52:36.808Z,3.40
2023-02-13T09:55:12.095Z,3.67
2023-02-13T09:57:45.122Z,3.30
2023-02-13T10:00:17.952Z,3.37
2023-02-13T10:03:14.835Z,3.37
2023-02-13T10:05:52.721Z,3.97
2023-02-13T10:08:33.753Z,3.47
2023-02-13T10:11:08.312Z,3.43
2023-02-13T10:13:53.119Z,3.30
2023-02-13T10:16:24.602Z,3.70
2023-02-13T10:18:58.325Z,3.63
2023-02-13T10:21:31.349Z,3.20
2023-02-13T10:24:05.956Z,3.70
2023-02-13T10:26:45.896Z,4.00
2023-02-13T10:29:36.114Z,3.03
2023-02-13T10:32:08.327Z,3.57
2023-02-13T10:34:43.153Z,3.70
2023-02-13T10:37:16.333Z,3.37
2023-02-13T10:39:46.803Z,3.40
2023-02-13T10:42:23.849Z,4.03
2023-02-13T10:45:00.756Z,3.00
2023-02-13T10:47:42.891Z,3.30
2023-02-13T10:50:23.703Z,2.97
2023-02-13T10:52:58.174Z,3.30
2023-02-13T10:55:52.271Z,3.20
2023-02-13T10:58:23.299Z,3.50
2023-02-13T11:00:57.422Z,3.43
2023-02-13T11:03:27.143Z,3.53
2023-02-13T11:05:59.143Z,4.07
2023-02-13T11:08:31.541Z,3.70
2023-02-13T11:10:59.474Z,3.50
2023-02-13T11:13:29.866Z,3.80
2023-02-13T11:16:01.605Z,3.03
2023-02-13T11:18:32.067Z,3.07
2023-02-13T11:21:04.117Z,3.27
2023-02-13T11:23:38.853Z,3.37
2023-02-13T11:26:09.144Z,3.43
2023-02-13T11:28:40.400Z,2.60
2023-02-13T11:31:14.349Z,2.60
2023-02-13T11:33:43.117Z,3.70
2023-02-13T11:36:16.630Z,3.23
2023-02-13T11:38:44.765Z,3.30
2023-02-13T11:41:14.698Z,2.70
2023-02-13T11:43:48.372Z,3.30
2023-02-13T11:46:21.054Z,3.00
2023-02-13T11:49:02.346Z,2.77
2023-02-13T11:51:40.588Z,3.00
2023-02-13T11:54:30.328Z,3.03
2023-02-13T11:57:04.465Z,2.53
2023-02-13T11:59:40.031Z,2.60
2023-02-13T12:02:19.941Z,3.23
2023-02-13T12:04:49.261Z,3.10
2023-02-13T12:07:23.211Z,3.07
2023-02-13T12:09:56.455Z,2.97
2023-02-13T12:12:30.745Z,2.67
2023-02-13T12:14:59.319Z,2.90
2023-02-13T12:17:32.334Z,2.77
2023-02-13T12:20:01.437Z,2.70
2023-02-13T12:22:43.496Z,2.63
2023-02-13T12:25:46.543Z,2.53
2023-02-13T12:28:17.267Z,2.87
2023-02-13T12:31:15.179Z,2.97
2023-02-13T12:34:01.074Z,2.50
2023-02-13T12:36:37.272Z,2.87
2023-02-13T12:39:19.137Z,2.77
2023-02-13T12:42:01.474Z,2.93
2023-02-13T12:45:01.735Z,2.20
2023-02-13T12:47:32.199Z,2.50
2023-02-13T12:50:18.005Z,3.10
2023-02-13T12:52:57.798Z,2.70
2023-02-13T12:55:51.070Z,2.97
2023-02-13T12:58:42.484Z,2.67
2023-02-13T13:01:20.874Z,3.00
2023-02-13T13:03:57.099Z,2.70
2023-02-13T13:06:42.438Z,2.80
2023-02-13T13:09:26.827Z,2.23
2023-02-13T13:12:16.364Z,2.63
2023-02-13T13:14:52.364Z,2.50
2023-02-13T13:17:31.052Z,2.80
2023-02-13T13:20:09.429Z,2.40
2023-02-13T13:22:43.307Z,2.70
2023-02-13T13:25:19.848Z,2.33
2023-02-13T13:27:53.074Z,2.70
2023-02-13T13:30:26.016Z,2.43
2023-02-13T13:32:59.082Z,3.07
2023-02-13T13:35:27.272Z,2.43
2023-02-13T13:38:03.245Z,2.53
2023-02-13T13:40:40.907Z,2.43
2023-02-13T13:43:19.575Z,3.03
2023-02-13T13:45:52.556Z,2.30
2023-02-13T13:48:52.156Z,2.33
2023-02-13T13:51:20.778Z,2.00
2023-02-13T13:54:33.634Z,2.27
2023-02-13T13:57:09.429Z,2.73
2023-02-13T13:59:58.528Z,2.40
2023-02-13T14:02:48.619Z,1.93
2023-02-13T14:05:32.101Z,2.40
2023-02-13T14:08:01.549Z,2.80
2023-02-13T14:11:02.089Z,2.43
2023-02-13T14:13:35.520Z,2.30
2023-02-13T14:16:06.478Z,2.23
2023-02-13T14:18:35.434Z,2.10
2023-02-13T14:21:04.782Z,2.40
2023-02-13T14:23:53.289Z,2.50
2023-02-13T14:26:34.093Z,2.27
2023-02-13T14:29:28.436Z,2.67
2023-02-13T14:32:08.040Z,2.30
2023-02-13T14:34:38.797Z,2.27
2023-02-13T14:37:20.973Z,2.10
2023-02-13T14:40:29.262Z,2.40
2023-02-13T14:43:01.150Z,2.13
2023-02-13T14:45:33.262Z,2.10
2023-02-13T14:48:09.615Z,2.20
2023-02-13T14:50:46.859Z,2.80
2023-02-13T14:53:22.830Z,2.63
2023-02-13T14:55:57.731Z,1.97
2023-02-13T14:58:30.158Z,2.20
2023-02-13T15:01:03.120Z,2.40
2023-02-13T15:03:38.079Z,2.30
2023-02-13T15:06:13.035Z,1.97
2023-02-13T15:08:46.614Z,2.00
2023-02-13T15:11:35.728Z,2.30
2023-02-13T15:14:17.704Z,2.67
2023-02-13T15:16:48.012Z,2.30
2023-02-13T15:19:19.486Z,1.70
2023-02-13T15:21:53.910Z,2.40
2023-02-13T15:24:23.934Z,2.10
2023-02-13T15:27:03.248Z,1.87
2023-02-13T15:29:47.651Z,2.00
2023-02-13T15:32:21.717Z,2.07
2023-02-13T15:34:51.015Z,2.27
2023-02-13T15:37:24.417Z,1.67
2023-02-13T15:39:52.342Z,2.10
2023-02-13T15:42:20.480Z,2.23
2023-02-13T15:44:50.891Z,2.57
2023-02-13T15:47:24.449Z,2.27
2023-02-13T15:49:55.226Z,2.50
2023-02-13T15:52:28.037Z,2.43
2023-02-13T15:54:57.574Z,2.40
2023-02-13T15:57:27.210Z,2.23
2023-02-13T15:59:56.354Z,1.87
2023-02-13T16:02:29.588Z,2.50
2023-02-13T16:04:59.754Z,2.07
2023-02-13T16:07:27.649Z,2.13
2023-02-13T16:10:15.603Z,2.00
2023-02-13T16:12:47.631Z,2.33
2023-02-13T16:15:19.715Z,2.23
2023-02-13T16:17:49.187Z,2.23
2023-02-13T16:20:22.400Z,2.53
2023-02-13T16:22:52.665Z,2.13
2023-02-13T16:25:25.771Z,2.43
2023-02-13T16:27:56.500Z,2.20
2023-02-13T16:30:34.410Z,2.20
2023-02-13T16:33:29.151Z,2.00
2023-02-13T16:36:00.359Z,2.17
2023-02-13T16:38:31.872Z,2.60
2023-02-13T16:41:01.047Z,2.30
2023-02-13T16:43:51.665Z,1.73
2023-02-13T16:46:24.428Z,2.03
2023-02-13T16:49:18.538Z,1.87
2023-02-13T16:51:51.350Z,2.00
2023-02-13T16:54:27.519Z,2.80
2023-02-13T16:56:58.535Z,2.13
2023-02-13T16:59:34.490Z,1.70
2023-02-13T17:02:16.623Z,2.20
2023-02-13T17:04:46.248Z,2.13
2023-02-13T17:07:18.276Z,2.07
2023-02-13T17:09:46.162Z,2.30
2023-02-13T17:12:16.514Z,2.10
2023-02-13T17:14:44.483Z,2.13
2023-02-13T17:17:13.901Z,2.57
2023-02-13T17:19:41.843Z,2.27
2023-02-13T17:22:14.384Z,2.10
2023-02-13T17:24:43.617Z,2.37
2023-02-13T17:27:12.592Z,2.17
2023-02-13T17:29:40.454Z,1.93
2023-02-13T17:32:12.315Z,2.70
2023-02-13T17:34:40.171Z,1.70
2023-02-13T17:37:17.583Z,2.57
2023-02-13T17:39:47.695Z,2.37
2023-02-13T17:42:18.975Z,2.30
2023-02-13T17:44:47.406Z,2.07
2023-02-13T17:47:15.465Z,2.10
2023-02-13T17:49:43.546Z,2.73
2023-02-13T17:52:16.746Z,2.10
2023-02-13T17:54:46.076Z,2.20
2023-02-13T17:57:15.087Z,1.73
2023-02-13T17:59:43.484Z,2.30
2023-02-13T18:02:14.418Z,2.73
2023-02-13T18:04:42.401Z,2.37
2023-02-13T18:07:11.830Z,2.33
2023-02-13T18:09:40.170Z,1.97
2023-02-13T18:12:12.607Z,1.93
2023-02-13T18:14:40.459Z,1.57
2023-02-13T18:17:08.502Z,2.63
2023-02-13T18:19:37.467Z,2.73
2023-02-13T18:22:05.796Z,2.90
2023-02-13T18:24:34.713Z,2.50
2023-02-13T18:27:02.627Z,2.40
2023-02-13T18:29:31.971Z,2.80
2023-02-13T18:31:59.929Z,1.90
2023-02-13T18:34:27.833Z,2.40
2023-02-13T18:36:55.700Z,2.53
2023-02-13T18:39:23.673Z,2.00
2023-02-13T18:41:51.533Z,2.43
2023-02-13T18:44:28.199Z,2.07
2023-02-13T18:46:57.783Z,2.47
2023-02-13T18:49:26.158Z,2.33
2023-02-13T18:51:54.077Z,2.70
2023-02-13T18:54:22.212Z,2.47
2023-02-13T18:56:50.074Z,2.87
2023-02-13T18:59:18.542Z,2.50
2023-02-13T19:01:46.729Z,2.50
2023-02-13T19:04:16.065Z,2.53
2023-02-13T19:06:45.187Z,2.33
2023-02-13T19:09:13.206Z,2.70
2023-02-13T19:11:42.708Z,2.37
2023-02-13T19:14:13.628Z,2.43
2023-02-13T19:16:42.278Z,2.80
2023-02-13T19:19:10.198Z,2.33
2023-02-13T19:21:39.935Z,2.60
2023-02-13T19:24:09.644Z,3.03
2023-02-13T19:26:38.001Z,2.13
2023-02-13T19:29:05.926Z,2.67
2023-02-13T19:31:34.636Z,2.20
2023-02-13T19:34:02.702Z,2.80
2023-02-13T19:36:31.073Z,2.60
2023-02-13T19:39:03.733Z,2.53
2023-02-13T19:41:32.853Z,2.90
2023-02-13T19:44:01.200Z,2.87
2023-02-13T19:46:31.757Z,2.70
2023-02-13T19:49:00.000Z,2.50
2023-02-13T19:51:29.598Z,2.47
2023-02-13T19:53:58.051Z,2.60
2023-02-13T19:56:28.506Z,2.63
2023-02-13T19:58:56.626Z,2.87
2023-02-13T20:01:26.332Z,3.00
2023-02-13T20:03:54.677Z,3.07
2023-02-13T20:06:24.797Z,2.67
2023-02-13T20:08:53.307Z,3.07
2023-02-13T20:11:23.031Z,2.70
2023-02-13T20:13:56.424Z,2.50
2023-02-13T20:16:24.881Z,2.83
2023-02-13T20:18:53.024Z,2.80
2023-02-13T20:21:21.616Z,2.93
2023-02-13T20:23:51.648Z,2.90
2023-02-13T20:26:20.479Z,2.60
2023-02-13T20:28:48.927Z,2.33
2023-02-13T20:31:20.794Z,2.70
2023-02-13T20:33:49.517Z,2.40
2023-02-13T20:36:21.202Z,2.50
2023-02-13T20:38:50.272Z,3.30
2023-02-13T20:41:20.096Z,3.00
2023-02-13T20:43:48.093Z,2.67
2023-02-13T20:46:18.603Z,2.73
2023-02-13T20:48:48.163Z,3.40
2023-02-13T20:51:17.817Z,2.87
2023-02-13T20:53:46.623Z,2.63
2023-02-13T20:56:16.078Z,3.00
2023-02-13T20:58:44.991Z,2.97
2023-02-13T21:01:14.523Z,3.00
2023-02-13T21:03:44.373Z,3.23
2023-02-13T21:06:13.084Z,2.87
2023-02-13T21:08:43.988Z,3.03
2023-02-13T21:11:11.921Z,2.77
2023-02-13T21:13:40.197Z,3.53
2023-02-13T21:16:10.312Z,3.40
2023-02-13T21:18:38.933Z,2.73
2023-02-13T21:21:09.608Z,3.50
2023-02-13T21:23:38.397Z,2.90
2023-02-13T21:26:08.666Z,3.03
2023-02-13T21:28:37.800Z,2.87
2023-02-13T21:31:09.659Z,2.70
2023-02-13T21:33:37.569Z,3.50
2023-02-13T21:36:09.792Z,3.90
2023-02-13T21:38:39.102Z,2.50
2023-02-13T21:41:07.937Z,3.10
2023-02-13T21:43:37.888Z,2.90
2023-02-13T21:46:10.595Z,2.67
2023-02-13T21:48:38.894Z,2.60
2023-02-13T21:51:07.791Z,3.33
2023-02-13T21:53:37.132Z,3.10
2023-02-13T21:56:05.934Z,3.30
2023-02-13T21:58:34.382Z,3.43
2023-02-13T22:01:02.673Z,2.50
2023-02-13T22:03:30.730Z,3.20
2023-02-13T22:05:58.615Z,3.30
2023-02-13T22:08:26.551Z,3.00
2023-02-13T22:10:56.997Z,3.37
2023-02-13T22:13:25.238Z,2.80
2023-02-13T22:16:00.679Z,3.10
2023-02-13T22:18:30.984Z,3.17
2023-02-13T22:20:59.192Z,3.30
2023-02-13T22:23:27.752Z,3.43
2023-02-13T22:25:56.966Z,2.77
2023-02-13T22:28:24.827Z,3.00
2023-02-13T22:30:52.764Z,3.07
2023-02-13T22:33:20.745Z,3.53
2023-02-13T22:35:48.822Z,3.10
2023-02-13T22:38:16.736Z,3.53
2023-02-13T22:40:44.918Z,3.90
2023-02-13T22:43:14.150Z,4.50
2023-02-13T22:45:42.078Z,3.40
2023-02-13T22:48:10.097Z,3.97
2023-02-13T22:50:38.016Z,3.87
2023-02-13T22:53:05.898Z,3.73
2023-02-13T22:55:34.506Z,3.30
2023-02-13T22:58:02.370Z,3.83
2023-02-13T23:00:31.562Z,3.40
2023-02-13T23:02:59.409Z,3.90
2023-02-13T23:05:27.281Z,3.47
2023-02-13T23:07:55.116Z,3.47
2023-02-13T23:10:25.900Z,4.47
2023-02-13T23:12:52.780Z,3.47
2023-02-13T23:15:20.755Z,3.17
2023-02-13T23:18:07.486Z,3.53
2023-02-13T23:20:35.408Z,3.60
2023-02-13T23:23:04.855Z,3.27
2023-02-13T23:25:32.872Z,4.10
2023-02-13T23:28:00.739Z,3.80
2023-02-13T23:30:30.129Z,2.83
2023-02-13T23:33:00.597Z,4.03
2023-02-13T23:35:28.687Z,3.60
2023-02-13T23:37:56.582Z,3.33
2023-02-13T23:40:24.457Z,3.50
2023-02-13T23:42:52.293Z,4.00
2023-02-13T23:45:20.245Z,3.63
2023-02-13T23:47:48.133Z,3.60
2023-02-13T23:50:17.526Z,4.13
2023-02-13T23:52:45.424Z,3.50
2023-02-13T23:55:13.288Z,3.20
2023-02-13T23:57:41.902Z,3.80
